sensor_id;sensor_type;location;lat;lon;timestamp;P1;durP1;ratioP1;P2;durP2;ratioP2
20609;SDS011;10463;52.378;9.688;2023-08-20T00:00:51;5.20;;;4.80;;
20609;SDS011;10463;52.378;9.688;2023-08-20T00:03:39;6.13;;;4.90;;
20609;SDS011;10463;52.378;9.688;2023-08-20T00:06:25;5.20;;;4.80;;
20609;SDS011;10463;52.378;9.688;2023-08-20T00:09:09;5.20;;;4.73;;
20609;SDS011;10463;52.378;9.688;2023-08-20T00:11:54;5.13;;;4.63;;
20609;SDS011;10463;52.378;9.688;2023-08-20T00:14:52;5.73;;;5.10;;
20609;SDS011;10463;52.378;9.688;2023-08-20T00:17:39;5.13;;;4.63;;
20609;SDS011;10463;52.378;9.688;2023-08-20T00:20:27;5.00;;;4.60;;
20609;SDS011;10463;52.378;9.688;2023-08-20T00:23:13;5.43;;;5.03;;
20609;SDS011;10463;52.378;9.688;2023-08-20T00:25:59;5.70;;;5.20;;
20609;SDS011;10463;52.378;9.688;2023-08-20T00:28:44;5.50;;;5.00;;
20609;SDS011;10463;52.378;9.688;2023-08-20T00:31:28;5.50;;;5.00;;
20609;SDS011;10463;52.378;9.688;2023-08-20T00:34:13;5.67;;;5.17;;
20609;SDS011;10463;52.378;9.688;2023-08-20T00:36:59;5.13;;;4.63;;
20609;SDS011;10463;52.378;9.688;2023-08-20T00:39:44;4.57;;;4.17;;
20609;SDS011;10463;52.378;9.688;2023-08-20T00:42:29;4.90;;;4.50;;
20609;SDS011;10463;52.378;9.688;2023-08-20T00:45:14;5.40;;;4.77;;
20609;SDS011;10463;52.378;9.688;2023-08-20T00:48:01;4.80;;;4.40;;
20609;SDS011;10463;52.378;9.688;2023-08-20T00:50:47;4.83;;;4.43;;
20609;SDS011;10463;52.378;9.688;2023-08-20T00:53:33;4.50;;;4.20;;
20609;SDS011;10463;52.378;9.688;2023-08-20T00:56:18;3.83;;;3.53;;
20609;SDS011;10463;52.378;9.688;2023-08-20T00:59:04;4.70;;;4.30;;
20609;SDS011;10463;52.378;9.688;2023-08-20T01:01:49;4.20;;;3.90;;
20609;SDS011;10463;52.378;9.688;2023-08-20T01:04:34;4.10;;;3.80;;
20609;SDS011;10463;52.378;9.688;2023-08-20T01:07:24;4.43;;;4.03;;
20609;SDS011;10463;52.378;9.688;2023-08-20T01:10:18;3.57;;;3.27;;
20609;SDS011;10463;52.378;9.688;2023-08-20T01:13:11;4.87;;;4.40;;
20609;SDS011;10463;52.378;9.688;2023-08-20T01:15:56;4.27;;;3.97;;
20609;SDS011;10463;52.378;9.688;2023-08-20T01:18:41;5.47;;;4.23;;
20609;SDS011;10463;52.378;9.688;2023-08-20T01:21:33;4.20;;;3.80;;
20609;SDS011;10463;52.378;9.688;2023-08-20T01:24:29;4.13;;;3.80;;
20609;SDS011;10463;52.378;9.688;2023-08-20T01:27:36;3.97;;;3.57;;
20609;SDS011;10463;52.378;9.688;2023-08-20T01:30:30;4.33;;;3.33;;
20609;SDS011;10463;52.378;9.688;2023-08-20T01:33:15;3.87;;;3.53;;
20609;SDS011;10463;52.378;9.688;2023-08-20T01:36:01;3.90;;;3.50;;
20609;SDS011;10463;52.378;9.688;2023-08-20T01:38:45;3.77;;;3.37;;
20609;SDS011;10463;52.378;9.688;2023-08-20T01:41:30;4.23;;;2.90;;
20609;SDS011;10463;52.378;9.688;2023-08-20T01:44:17;3.30;;;3.00;;
20609;SDS011;10463;52.378;9.688;2023-08-20T01:47:04;3.63;;;3.33;;
20609;SDS011;10463;52.378;9.688;2023-08-20T01:49:49;3.80;;;3.47;;
20609;SDS011;10463;52.378;9.688;2023-08-20T01:52:33;2.97;;;2.60;;
20609;SDS011;10463;52.378;9.688;2023-08-20T01:55:18;3.07;;;2.73;;
20609;SDS011;10463;52.378;9.688;2023-08-20T01:58:03;3.40;;;3.10;;
20609;SDS011;10463;52.378;9.688;2023-08-20T02:00:48;3.07;;;2.83;;
20609;SDS011;10463;52.378;9.688;2023-08-20T02:03:35;2.80;;;2.60;;
20609;SDS011;10463;52.378;9.688;2023-08-20T02:06:21;3.33;;;3.03;;
20609;SDS011;10463;52.378;9.688;2023-08-20T02:09:06;3.00;;;2.70;;
20609;SDS011;10463;52.378;9.688;2023-08-20T02:11:51;3.23;;;2.93;;
20609;SDS011;10463;52.378;9.688;2023-08-20T02:14:35;3.10;;;2.80;;
20609;SDS011;10463;52.378;9.688;2023-08-20T02:17:20;3.20;;;2.90;;
20609;SDS011;10463;52.378;9.688;2023-08-20T02:20:07;3.40;;;3.10;;
20609;SDS011;10463;52.378;9.688;2023-08-20T02:22:54;3.40;;;2.53;;
20609;SDS011;10463;52.378;9.688;2023-08-20T02:25:38;3.20;;;2.90;;
20609;SDS011;10463;52.378;9.688;2023-08-20T02:28:23;2.80;;;2.60;;
20609;SDS011;10463;52.378;9.688;2023-08-20T02:31:08;3.70;;;2.80;;
20609;SDS011;10463;52.378;9.688;2023-08-20T02:33:53;3.20;;;2.90;;
20609;SDS011;10463;52.378;9.688;2023-08-20T02:36:39;3.07;;;2.60;;
20609;SDS011;10463;52.378;9.688;2023-08-20T02:39:23;2.80;;;2.60;;
20609;SDS011;10463;52.378;9.688;2023-08-20T02:42:09;3.30;;;2.87;;
20609;SDS011;10463;52.378;9.688;2023-08-20T02:44:53;3.50;;;2.70;;
20609;SDS011;10463;52.378;9.688;2023-08-20T02:47:38;2.60;;;2.40;;
20609;SDS011;10463;52.378;9.688;2023-08-20T02:50:22;3.13;;;2.13;;
20609;SDS011;10463;52.378;9.688;2023-08-20T02:53:09;2.80;;;2.30;;
20609;SDS011;10463;52.378;9.688;2023-08-20T02:55:53;2.87;;;2.60;;
20609;SDS011;10463;52.378;9.688;2023-08-20T02:58:38;3.00;;;2.43;;
20609;SDS011;10463;52.378;9.688;2023-08-20T03:01:25;3.10;;;2.80;;
20609;SDS011;10463;52.378;9.688;2023-08-20T03:04:11;2.70;;;2.50;;
20609;SDS011;10463;52.378;9.688;2023-08-20T03:06:56;3.63;;;2.73;;
20609;SDS011;10463;52.378;9.688;2023-08-20T03:09:42;2.87;;;2.27;;
20609;SDS011;10463;52.378;9.688;2023-08-20T03:12:26;3.27;;;2.30;;
20609;SDS011;10463;52.378;9.688;2023-08-20T03:15:11;3.37;;;3.07;;
20609;SDS011;10463;52.378;9.688;2023-08-20T03:17:55;3.87;;;2.80;;
20609;SDS011;10463;52.378;9.688;2023-08-20T03:20:40;1.90;;;1.70;;
20609;SDS011;10463;52.378;9.688;2023-08-20T03:23:25;3.60;;;2.57;;
20609;SDS011;10463;52.378;9.688;2023-08-20T03:26:11;3.53;;;2.80;;
20609;SDS011;10463;52.378;9.688;2023-08-20T03:28:55;2.70;;;2.50;;
20609;SDS011;10463;52.378;9.688;2023-08-20T03:31:40;3.17;;;2.87;;
20609;SDS011;10463;52.378;9.688;2023-08-20T03:34:24;2.80;;;2.50;;
20609;SDS011;10463;52.378;9.688;2023-08-20T03:37:09;3.20;;;2.37;;
20609;SDS011;10463;52.378;9.688;2023-08-20T03:39:53;3.90;;;2.63;;
20609;SDS011;10463;52.378;9.688;2023-08-20T03:42:39;2.80;;;2.50;;
20609;SDS011;10463;52.378;9.688;2023-08-20T03:45:23;2.47;;;2.27;;
20609;SDS011;10463;52.378;9.688;2023-08-20T03:48:09;2.53;;;2.30;;
20609;SDS011;10463;52.378;9.688;2023-08-20T03:50:53;2.20;;;1.97;;
20609;SDS011;10463;52.378;9.688;2023-08-20T03:53:38;2.57;;;2.37;;
20609;SDS011;10463;52.378;9.688;2023-08-20T03:56:23;2.10;;;1.90;;
20609;SDS011;10463;52.378;9.688;2023-08-20T03:59:09;2.40;;;2.20;;
20609;SDS011;10463;52.378;9.688;2023-08-20T04:01:54;2.90;;;2.53;;
20609;SDS011;10463;52.378;9.688;2023-08-20T04:04:38;3.13;;;2.37;;
20609;SDS011;10463;52.378;9.688;2023-08-20T04:07:23;2.40;;;2.13;;
20609;SDS011;10463;52.378;9.688;2023-08-20T04:10:09;2.60;;;2.30;;
20609;SDS011;10463;52.378;9.688;2023-08-20T04:12:54;2.83;;;1.93;;
20609;SDS011;10463;52.378;9.688;2023-08-20T04:15:40;2.83;;;2.53;;
20609;SDS011;10463;52.378;9.688;2023-08-20T04:18:25;2.83;;;2.30;;
20609;SDS011;10463;52.378;9.688;2023-08-20T04:21:11;6.13;;;2.47;;
20609;SDS011;10463;52.378;9.688;2023-08-20T04:23:56;2.53;;;2.33;;
20609;SDS011;10463;52.378;9.688;2023-08-20T04:26:40;2.23;;;2.03;;
20609;SDS011;10463;52.378;9.688;2023-08-20T04:29:25;2.90;;;2.33;;
20609;SDS011;10463;52.378;9.688;2023-08-20T04:32:12;2.47;;;2.00;;
20609;SDS011;10463;52.378;9.688;2023-08-20T04:34:57;2.93;;;2.10;;
20609;SDS011;10463;52.378;9.688;2023-08-20T04:37:43;2.87;;;2.50;;
20609;SDS011;10463;52.378;9.688;2023-08-20T04:40:28;2.60;;;2.40;;
20609;SDS011;10463;52.378;9.688;2023-08-20T04:43:12;2.50;;;2.20;;
20609;SDS011;10463;52.378;9.688;2023-08-20T04:45:57;2.67;;;2.47;;
20609;SDS011;10463;52.378;9.688;2023-08-20T04:48:44;3.53;;;2.30;;
20609;SDS011;10463;52.378;9.688;2023-08-20T04:51:29;2.90;;;2.10;;
20609;SDS011;10463;52.378;9.688;2023-08-20T04:54:14;2.43;;;2.17;;
20609;SDS011;10463;52.378;9.688;2023-08-20T04:56:58;2.50;;;2.00;;
20609;SDS011;10463;52.378;9.688;2023-08-20T04:59:44;2.47;;;2.17;;
20609;SDS011;10463;52.378;9.688;2023-08-20T05:03:01;2.87;;;2.57;;
20609;SDS011;10463;52.378;9.688;2023-08-20T05:05:49;2.70;;;2.37;;
20609;SDS011;10463;52.378;9.688;2023-08-20T05:08:34;3.97;;;2.40;;
20609;SDS011;10463;52.378;9.688;2023-08-20T05:11:18;2.20;;;2.00;;
20609;SDS011;10463;52.378;9.688;2023-08-20T05:14:03;2.13;;;1.93;;
20609;SDS011;10463;52.378;9.688;2023-08-20T05:16:48;3.20;;;2.40;;
20609;SDS011;10463;52.378;9.688;2023-08-20T05:19:32;3.53;;;2.60;;
20609;SDS011;10463;52.378;9.688;2023-08-20T05:22:19;2.50;;;2.30;;
20609;SDS011;10463;52.378;9.688;2023-08-20T05:25:05;2.40;;;2.13;;
20609;SDS011;10463;52.378;9.688;2023-08-20T05:27:50;3.30;;;2.40;;
20609;SDS011;10463;52.378;9.688;2023-08-20T05:30:35;2.30;;;2.10;;
20609;SDS011;10463;52.378;9.688;2023-08-20T05:33:19;2.63;;;2.17;;
20609;SDS011;10463;52.378;9.688;2023-08-20T05:36:04;2.77;;;2.50;;
20609;SDS011;10463;52.378;9.688;2023-08-20T05:38:51;2.93;;;2.47;;
20609;SDS011;10463;52.378;9.688;2023-08-20T05:41:35;3.50;;;2.10;;
20609;SDS011;10463;52.378;9.688;2023-08-20T05:44:21;2.60;;;2.33;;
20609;SDS011;10463;52.378;9.688;2023-08-20T05:47:07;2.60;;;2.40;;
20609;SDS011;10463;52.378;9.688;2023-08-20T05:49:52;2.47;;;2.07;;
20609;SDS011;10463;52.378;9.688;2023-08-20T05:52:36;2.80;;;2.30;;
20609;SDS011;10463;52.378;9.688;2023-08-20T05:55:24;2.50;;;2.27;;
20609;SDS011;10463;52.378;9.688;2023-08-20T05:58:09;2.63;;;2.30;;
20609;SDS011;10463;52.378;9.688;2023-08-20T06:00:53;2.37;;;2.17;;
20609;SDS011;10463;52.378;9.688;2023-08-20T06:03:38;3.17;;;2.40;;
20609;SDS011;10463;52.378;9.688;2023-08-20T06:06:23;2.67;;;2.10;;
20609;SDS011;10463;52.378;9.688;2023-08-20T06:09:07;3.20;;;2.50;;
20609;SDS011;10463;52.378;9.688;2023-08-20T06:11:53;2.73;;;2.43;;
20609;SDS011;10463;52.378;9.688;2023-08-20T06:14:38;2.87;;;2.47;;
20609;SDS011;10463;52.378;9.688;2023-08-20T06:17:22;2.93;;;2.60;;
20609;SDS011;10463;52.378;9.688;2023-08-20T06:20:08;3.20;;;2.60;;
20609;SDS011;10463;52.378;9.688;2023-08-20T06:22:55;3.47;;;2.57;;
20609;SDS011;10463;52.378;9.688;2023-08-20T06:25:39;2.90;;;2.60;;
20609;SDS011;10463;52.378;9.688;2023-08-20T06:28:25;2.93;;;2.20;;
20609;SDS011;10463;52.378;9.688;2023-08-20T06:31:10;2.83;;;2.53;;
20609;SDS011;10463;52.378;9.688;2023-08-20T06:33:54;2.80;;;2.60;;
20609;SDS011;10463;52.378;9.688;2023-08-20T06:36:39;3.03;;;2.77;;
20609;SDS011;10463;52.378;9.688;2023-08-20T06:39:24;3.20;;;2.73;;
20609;SDS011;10463;52.378;9.688;2023-08-20T06:42:08;2.60;;;2.40;;
20609;SDS011;10463;52.378;9.688;2023-08-20T06:44:55;4.43;;;2.57;;
20609;SDS011;10463;52.378;9.688;2023-08-20T06:47:40;2.80;;;2.50;;
20609;SDS011;10463;52.378;9.688;2023-08-20T06:50:25;2.90;;;2.60;;
20609;SDS011;10463;52.378;9.688;2023-08-20T06:53:09;2.90;;;2.60;;
20609;SDS011;10463;52.378;9.688;2023-08-20T06:55:54;3.67;;;2.77;;
20609;SDS011;10463;52.378;9.688;2023-08-20T06:58:40;2.87;;;2.57;;
20609;SDS011;10463;52.378;9.688;2023-08-20T07:01:26;3.20;;;2.87;;
20609;SDS011;10463;52.378;9.688;2023-08-20T07:04:11;3.17;;;2.70;;
20609;SDS011;10463;52.378;9.688;2023-08-20T07:06:56;2.80;;;2.50;;
20609;SDS011;10463;52.378;9.688;2023-08-20T07:09:42;2.93;;;2.63;;
20609;SDS011;10463;52.378;9.688;2023-08-20T07:12:26;3.20;;;2.70;;
20609;SDS011;10463;52.378;9.688;2023-08-20T07:15:11;2.87;;;2.53;;
20609;SDS011;10463;52.378;9.688;2023-08-20T07:17:57;3.07;;;2.20;;
20609;SDS011;10463;52.378;9.688;2023-08-20T07:20:41;2.37;;;2.10;;
20609;SDS011;10463;52.378;9.688;2023-08-20T07:23:26;3.47;;;3.10;;
20609;SDS011;10463;52.378;9.688;2023-08-20T07:26:11;2.77;;;2.43;;
20609;SDS011;10463;52.378;9.688;2023-08-20T07:28:56;2.93;;;2.60;;
20609;SDS011;10463;52.378;9.688;2023-08-20T07:31:40;3.43;;;2.70;;
20609;SDS011;10463;52.378;9.688;2023-08-20T07:34:27;2.90;;;2.17;;
20609;SDS011;10463;52.378;9.688;2023-08-20T07:37:11;2.57;;;2.30;;
20609;SDS011;10463;52.378;9.688;2023-08-20T07:39:56;3.97;;;2.90;;
20609;SDS011;10463;52.378;9.688;2023-08-20T07:42:41;2.90;;;2.60;;
20609;SDS011;10463;52.378;9.688;2023-08-20T07:45:26;3.10;;;2.50;;
20609;SDS011;10463;52.378;9.688;2023-08-20T07:48:10;2.50;;;2.03;;
20609;SDS011;10463;52.378;9.688;2023-08-20T07:50:56;2.80;;;2.27;;
20609;SDS011;10463;52.378;9.688;2023-08-20T07:53:41;3.10;;;2.40;;
20609;SDS011;10463;52.378;9.688;2023-08-20T07:56:26;2.57;;;2.23;;
20609;SDS011;10463;52.378;9.688;2023-08-20T07:59:11;2.60;;;2.40;;
20609;SDS011;10463;52.378;9.688;2023-08-20T08:01:55;2.60;;;2.33;;
20609;SDS011;10463;52.378;9.688;2023-08-20T08:04:40;2.33;;;1.97;;
20609;SDS011;10463;52.378;9.688;2023-08-20T08:07:27;2.30;;;2.10;;
20609;SDS011;10463;52.378;9.688;2023-08-20T08:10:11;2.47;;;2.20;;
20609;SDS011;10463;52.378;9.688;2023-08-20T08:12:56;2.50;;;2.20;;
20609;SDS011;10463;52.378;9.688;2023-08-20T08:15:41;2.50;;;2.13;;
20609;SDS011;10463;52.378;9.688;2023-08-20T08:18:26;2.27;;;1.93;;
20609;SDS011;10463;52.378;9.688;2023-08-20T08:21:11;2.90;;;2.33;;
20609;SDS011;10463;52.378;9.688;2023-08-20T08:23:56;2.50;;;2.10;;
20609;SDS011;10463;52.378;9.688;2023-08-20T08:26:41;2.83;;;2.00;;
20609;SDS011;10463;52.378;9.688;2023-08-20T08:29:25;2.10;;;1.77;;
20609;SDS011;10463;52.378;9.688;2023-08-20T08:32:10;3.00;;;2.40;;
20609;SDS011;10463;52.378;9.688;2023-08-20T08:34:54;2.53;;;2.00;;
20609;SDS011;10463;52.378;9.688;2023-08-20T08:37:39;2.60;;;2.40;;
20609;SDS011;10463;52.378;9.688;2023-08-20T08:40:26;2.87;;;2.30;;
20609;SDS011;10463;52.378;9.688;2023-08-20T08:43:12;2.60;;;2.20;;
20609;SDS011;10463;52.378;9.688;2023-08-20T08:46:00;2.50;;;1.97;;
20609;SDS011;10463;52.378;9.688;2023-08-20T08:48:47;2.43;;;2.00;;
20609;SDS011;10463;52.378;9.688;2023-08-20T08:51:32;2.30;;;2.00;;
20609;SDS011;10463;52.378;9.688;2023-08-20T08:54:18;2.73;;;2.00;;
20609;SDS011;10463;52.378;9.688;2023-08-20T08:57:05;2.90;;;1.80;;
20609;SDS011;10463;52.378;9.688;2023-08-20T08:59:49;2.50;;;1.73;;
20609;SDS011;10463;52.378;9.688;2023-08-20T09:02:34;2.10;;;1.80;;
20609;SDS011;10463;52.378;9.688;2023-08-20T09:05:18;2.50;;;1.87;;
20609;SDS011;10463;52.378;9.688;2023-08-20T09:08:04;1.97;;;1.70;;
20609;SDS011;10463;52.378;9.688;2023-08-20T09:10:50;2.10;;;1.80;;
20609;SDS011;10463;52.378;9.688;2023-08-20T09:13:38;2.97;;;2.13;;
20609;SDS011;10463;52.378;9.688;2023-08-20T09:16:23;2.83;;;1.90;;
20609;SDS011;10463;52.378;9.688;2023-08-20T09:19:14;2.63;;;1.80;;
20609;SDS011;10463;52.378;9.688;2023-08-20T09:21:58;2.03;;;1.60;;
20609;SDS011;10463;52.378;9.688;2023-08-20T09:24:44;2.10;;;1.60;;
20609;SDS011;10463;52.378;9.688;2023-08-20T09:27:30;2.03;;;1.60;;
20609;SDS011;10463;52.378;9.688;2023-08-20T09:30:25;2.47;;;1.93;;
20609;SDS011;10463;52.378;9.688;2023-08-20T09:33:11;3.27;;;1.80;;
20609;SDS011;10463;52.378;9.688;2023-08-20T09:35:58;2.00;;;1.67;;
20609;SDS011;10463;52.378;9.688;2023-08-20T09:38:42;2.37;;;1.63;;
20609;SDS011;10463;52.378;9.688;2023-08-20T09:41:27;2.43;;;1.90;;
20609;SDS011;10463;52.378;9.688;2023-08-20T09:44:13;2.57;;;2.10;;
20609;SDS011;10463;52.378;9.688;2023-08-20T09:47:01;1.97;;;1.77;;
20609;SDS011;10463;52.378;9.688;2023-08-20T09:49:47;2.13;;;1.57;;
20609;SDS011;10463;52.378;9.688;2023-08-20T09:52:38;2.37;;;2.10;;
20609;SDS011;10463;52.378;9.688;2023-08-20T09:55:28;2.17;;;1.60;;
20609;SDS011;10463;52.378;9.688;2023-08-20T09:58:16;2.47;;;1.73;;
20609;SDS011;10463;52.378;9.688;2023-08-20T10:01:05;1.80;;;1.57;;
20609;SDS011;10463;52.378;9.688;2023-08-20T10:03:53;1.93;;;1.40;;
20609;SDS011;10463;52.378;9.688;2023-08-20T10:06:38;2.00;;;1.73;;
20609;SDS011;10463;52.378;9.688;2023-08-20T10:09:24;2.03;;;1.83;;
20609;SDS011;10463;52.378;9.688;2023-08-20T10:12:09;2.30;;;1.83;;
20609;SDS011;10463;52.378;9.688;2023-08-20T10:14:54;1.80;;;1.63;;
20609;SDS011;10463;52.378;9.688;2023-08-20T10:17:42;1.70;;;1.50;;
20609;SDS011;10463;52.378;9.688;2023-08-20T10:20:30;2.70;;;2.00;;
20609;SDS011;10463;52.378;9.688;2023-08-20T10:23:15;1.87;;;1.50;;
20609;SDS011;10463;52.378;9.688;2023-08-20T10:26:08;2.00;;;1.67;;
20609;SDS011;10463;52.378;9.688;2023-08-20T10:32:14;1.90;;;1.43;;
20609;SDS011;10463;52.378;9.688;2023-08-20T10:34:58;1.67;;;1.40;;
20609;SDS011;10463;52.378;9.688;2023-08-20T10:38:03;2.00;;;1.50;;
20609;SDS011;10463;52.378;9.688;2023-08-20T10:40:51;2.10;;;1.50;;
20609;SDS011;10463;52.378;9.688;2023-08-20T10:43:38;1.90;;;1.63;;
20609;SDS011;10463;52.378;9.688;2023-08-20T10:46:24;2.10;;;1.73;;
20609;SDS011;10463;52.378;9.688;2023-08-20T10:49:09;1.73;;;1.50;;
20609;SDS011;10463;52.378;9.688;2023-08-20T10:52:01;2.37;;;1.50;;
20609;SDS011;10463;52.378;9.688;2023-08-20T10:54:50;1.70;;;1.40;;
20609;SDS011;10463;52.378;9.688;2023-08-20T10:57:36;1.63;;;1.23;;
20609;SDS011;10463;52.378;9.688;2023-08-20T11:00:21;2.50;;;1.70;;
20609;SDS011;10463;52.378;9.688;2023-08-20T11:03:06;1.60;;;1.40;;
20609;SDS011;10463;52.378;9.688;2023-08-20T11:05:52;1.80;;;1.43;;
20609;SDS011;10463;52.378;9.688;2023-08-20T11:08:37;2.03;;;1.60;;
20609;SDS011;10463;52.378;9.688;2023-08-20T11:11:24;1.60;;;1.10;;
20609;SDS011;10463;52.378;9.688;2023-08-20T11:14:12;1.73;;;1.30;;
20609;SDS011;10463;52.378;9.688;2023-08-20T11:16:57;1.83;;;1.30;;
20609;SDS011;10463;52.378;9.688;2023-08-20T11:19:42;2.77;;;1.63;;
20609;SDS011;10463;52.378;9.688;2023-08-20T11:22:27;2.13;;;1.43;;
20609;SDS011;10463;52.378;9.688;2023-08-20T11:25:12;1.87;;;1.27;;
20609;SDS011;10463;52.378;9.688;2023-08-20T11:27:58;1.67;;;1.30;;
20609;SDS011;10463;52.378;9.688;2023-08-20T11:30:43;1.83;;;1.47;;
20609;SDS011;10463;52.378;9.688;2023-08-20T11:33:30;1.87;;;1.33;;
20609;SDS011;10463;52.378;9.688;2023-08-20T11:36:15;2.07;;;1.27;;
20609;SDS011;10463;52.378;9.688;2023-08-20T11:39:00;1.70;;;1.40;;
20609;SDS011;10463;52.378;9.688;2023-08-20T11:41:45;2.70;;;1.30;;
20609;SDS011;10463;52.378;9.688;2023-08-20T11:44:42;2.17;;;1.37;;
20609;SDS011;10463;52.378;9.688;2023-08-20T11:47:28;1.77;;;1.20;;
20609;SDS011;10463;52.378;9.688;2023-08-20T11:50:13;1.90;;;1.20;;
20609;SDS011;10463;52.378;9.688;2023-08-20T11:52:57;2.37;;;1.50;;
20609;SDS011;10463;52.378;9.688;2023-08-20T11:55:45;3.20;;;1.50;;
20609;SDS011;10463;52.378;9.688;2023-08-20T11:58:30;2.10;;;1.70;;
20609;SDS011;10463;52.378;9.688;2023-08-20T12:01:17;2.60;;;2.13;;
20609;SDS011;10463;52.378;9.688;2023-08-20T12:04:03;3.00;;;2.23;;
20609;SDS011;10463;52.378;9.688;2023-08-20T12:07:01;2.27;;;1.93;;
20609;SDS011;10463;52.378;9.688;2023-08-20T12:09:49;3.30;;;2.50;;
20609;SDS011;10463;52.378;9.688;2023-08-20T12:12:34;2.90;;;2.07;;
20609;SDS011;10463;52.378;9.688;2023-08-20T12:15:19;2.70;;;2.40;;
20609;SDS011;10463;52.378;9.688;2023-08-20T12:18:06;2.90;;;2.30;;
20609;SDS011;10463;52.378;9.688;2023-08-20T12:20:52;2.83;;;2.37;;
20609;SDS011;10463;52.378;9.688;2023-08-20T12:23:39;5.10;;;2.70;;
20609;SDS011;10463;52.378;9.688;2023-08-20T12:26:24;4.10;;;2.57;;
20609;SDS011;10463;52.378;9.688;2023-08-20T12:29:08;2.93;;;2.43;;
20609;SDS011;10463;52.378;9.688;2023-08-20T12:31:53;2.70;;;2.50;;
20609;SDS011;10463;52.378;9.688;2023-08-20T12:34:39;5.33;;;2.80;;
20609;SDS011;10463;52.378;9.688;2023-08-20T12:37:24;3.07;;;2.77;;
20609;SDS011;10463;52.378;9.688;2023-08-20T12:40:09;2.80;;;2.50;;
20609;SDS011;10463;52.378;9.688;2023-08-20T12:42:56;3.60;;;2.40;;
20609;SDS011;10463;52.378;9.688;2023-08-20T12:45:40;3.47;;;2.70;;
20609;SDS011;10463;52.378;9.688;2023-08-20T12:48:25;3.10;;;2.80;;
20609;SDS011;10463;52.378;9.688;2023-08-20T12:51:11;7.83;;;3.00;;
20609;SDS011;10463;52.378;9.688;2023-08-20T12:53:57;3.07;;;2.77;;
20609;SDS011;10463;52.378;9.688;2023-08-20T12:56:42;4.30;;;3.00;;
20609;SDS011;10463;52.378;9.688;2023-08-20T12:59:27;3.30;;;3.00;;
20609;SDS011;10463;52.378;9.688;2023-08-20T13:02:11;4.63;;;2.80;;
20609;SDS011;10463;52.378;9.688;2023-08-20T13:04:56;3.20;;;2.90;;
20609;SDS011;10463;52.378;9.688;2023-08-20T13:07:44;9.90;;;3.13;;
20609;SDS011;10463;52.378;9.688;2023-08-20T13:10:30;4.57;;;3.10;;
20609;SDS011;10463;52.378;9.688;2023-08-20T13:13:15;2.33;;;2.13;;
20609;SDS011;10463;52.378;9.688;2023-08-20T13:16:02;2.60;;;2.40;;
20609;SDS011;10463;52.378;9.688;2023-08-20T13:18:47;3.17;;;2.87;;
20609;SDS011;10463;52.378;9.688;2023-08-20T13:21:32;3.80;;;2.63;;
20609;SDS011;10463;52.378;9.688;2023-08-20T13:24:20;2.93;;;2.30;;
20609;SDS011;10463;52.378;9.688;2023-08-20T13:27:04;2.60;;;2.20;;
20609;SDS011;10463;52.378;9.688;2023-08-20T13:29:49;2.37;;;2.10;;
20609;SDS011;10463;52.378;9.688;2023-08-20T13:32:34;2.17;;;1.97;;
20609;SDS011;10463;52.378;9.688;2023-08-20T13:35:18;2.30;;;2.10;;
20609;SDS011;10463;52.378;9.688;2023-08-20T13:38:03;2.80;;;2.43;;
20609;SDS011;10463;52.378;9.688;2023-08-20T13:40:49;2.60;;;2.37;;
20609;SDS011;10463;52.378;9.688;2023-08-20T13:43:34;2.40;;;2.20;;
20609;SDS011;10463;52.378;9.688;2023-08-20T13:46:18;2.17;;;1.97;;
20609;SDS011;10463;52.378;9.688;2023-08-20T13:49:03;2.80;;;2.60;;
20609;SDS011;10463;52.378;9.688;2023-08-20T13:51:48;2.70;;;2.50;;
20609;SDS011;10463;52.378;9.688;2023-08-20T13:54:32;2.60;;;2.40;;
20609;SDS011;10463;52.378;9.688;2023-08-20T13:57:20;2.60;;;2.40;;
20609;SDS011;10463;52.378;9.688;2023-08-20T14:00:06;2.67;;;2.47;;
20609;SDS011;10463;52.378;9.688;2023-08-20T14:02:52;2.93;;;2.30;;
20609;SDS011;10463;52.378;9.688;2023-08-20T14:05:37;2.80;;;2.60;;
20609;SDS011;10463;52.378;9.688;2023-08-20T14:08:21;2.37;;;2.17;;
20609;SDS011;10463;52.378;9.688;2023-08-20T14:11:06;3.50;;;2.80;;
20609;SDS011;10463;52.378;9.688;2023-08-20T14:13:52;2.50;;;2.30;;
20609;SDS011;10463;52.378;9.688;2023-08-20T14:16:36;3.97;;;2.30;;
20609;SDS011;10463;52.378;9.688;2023-08-20T14:19:21;2.80;;;2.60;;
20609;SDS011;10463;52.378;9.688;2023-08-20T14:22:05;3.07;;;2.77;;
20609;SDS011;10463;52.378;9.688;2023-08-20T14:24:51;2.90;;;2.20;;
20609;SDS011;10463;52.378;9.688;2023-08-20T14:27:36;2.90;;;2.53;;
20609;SDS011;10463;52.378;9.688;2023-08-20T14:30:21;2.53;;;2.33;;
20609;SDS011;10463;52.378;9.688;2023-08-20T14:33:06;2.73;;;2.50;;
20609;SDS011;10463;52.378;9.688;2023-08-20T14:35:50;2.53;;;2.23;;
20609;SDS011;10463;52.378;9.688;2023-08-20T14:38:35;2.73;;;2.40;;
20609;SDS011;10463;52.378;9.688;2023-08-20T14:41:20;3.00;;;2.57;;
20609;SDS011;10463;52.378;9.688;2023-08-20T14:44:05;2.60;;;2.40;;
20609;SDS011;10463;52.378;9.688;2023-08-20T14:46:51;2.87;;;2.67;;
20609;SDS011;10463;52.378;9.688;2023-08-20T14:49:36;3.43;;;3.13;;
20609;SDS011;10463;52.378;9.688;2023-08-20T14:52:20;3.10;;;2.70;;
20609;SDS011;10463;52.378;9.688;2023-08-20T14:55:06;2.93;;;2.70;;
20609;SDS011;10463;52.378;9.688;2023-08-20T14:57:53;3.30;;;2.73;;
20609;SDS011;10463;52.378;9.688;2023-08-20T15:00:40;2.60;;;2.30;;
20609;SDS011;10463;52.378;9.688;2023-08-20T15:03:26;2.80;;;2.60;;
20609;SDS011;10463;52.378;9.688;2023-08-20T15:06:11;3.17;;;2.87;;
20609;SDS011;10463;52.378;9.688;2023-08-20T15:08:56;3.53;;;2.70;;
20609;SDS011;10463;52.378;9.688;2023-08-20T15:11:41;2.63;;;2.43;;
20609;SDS011;10463;52.378;9.688;2023-08-20T15:14:26;2.87;;;2.57;;
20609;SDS011;10463;52.378;9.688;2023-08-20T15:17:11;2.90;;;2.60;;
20609;SDS011;10463;52.378;9.688;2023-08-20T15:19:57;2.63;;;2.43;;
20609;SDS011;10463;52.378;9.688;2023-08-20T15:22:41;3.17;;;2.87;;
20609;SDS011;10463;52.378;9.688;2023-08-20T15:25:26;3.10;;;2.63;;
20609;SDS011;10463;52.378;9.688;2023-08-20T15:28:11;2.67;;;2.47;;
20609;SDS011;10463;52.378;9.688;2023-08-20T15:30:55;2.40;;;2.20;;
20609;SDS011;10463;52.378;9.688;2023-08-20T15:33:40;3.03;;;2.80;;
20609;SDS011;10463;52.378;9.688;2023-08-20T15:36:27;2.73;;;2.53;;
20609;SDS011;10463;52.378;9.688;2023-08-20T15:39:11;3.23;;;2.93;;
20609;SDS011;10463;52.378;9.688;2023-08-20T15:41:56;2.30;;;2.10;;
20609;SDS011;10463;52.378;9.688;2023-08-20T15:44:41;2.60;;;2.40;;
20609;SDS011;10463;52.378;9.688;2023-08-20T15:47:26;2.73;;;2.40;;
20609;SDS011;10463;52.378;9.688;2023-08-20T15:50:10;2.60;;;2.40;;
20609;SDS011;10463;52.378;9.688;2023-08-20T15:52:58;2.53;;;2.33;;
20609;SDS011;10463;52.378;9.688;2023-08-20T15:55:42;2.70;;;2.40;;
20609;SDS011;10463;52.378;9.688;2023-08-20T15:58:27;2.47;;;2.27;;
20609;SDS011;10463;52.378;9.688;2023-08-20T16:01:11;2.90;;;2.70;;
20609;SDS011;10463;52.378;9.688;2023-08-20T16:03:56;2.50;;;2.30;;
20609;SDS011;10463;52.378;9.688;2023-08-20T16:06:41;2.73;;;2.53;;
20609;SDS011;10463;52.378;9.688;2023-08-20T16:09:27;2.67;;;2.47;;
20609;SDS011;10463;52.378;9.688;2023-08-20T16:12:11;3.50;;;2.87;;
20609;SDS011;10463;52.378;9.688;2023-08-20T16:14:56;2.50;;;2.30;;
20609;SDS011;10463;52.378;9.688;2023-08-20T16:17:41;2.50;;;2.30;;
20609;SDS011;10463;52.378;9.688;2023-08-20T16:20:26;3.03;;;2.83;;
20609;SDS011;10463;52.378;9.688;2023-08-20T16:23:10;2.60;;;2.40;;
20609;SDS011;10463;52.378;9.688;2023-08-20T16:25:56;2.97;;;2.67;;
20609;SDS011;10463;52.378;9.688;2023-08-20T16:28:41;2.53;;;2.10;;
20609;SDS011;10463;52.378;9.688;2023-08-20T16:31:29;2.77;;;2.57;;
20609;SDS011;10463;52.378;9.688;2023-08-20T16:34:13;2.47;;;2.27;;
20609;SDS011;10463;52.378;9.688;2023-08-20T16:36:58;2.40;;;2.20;;
20609;SDS011;10463;52.378;9.688;2023-08-20T16:39:42;2.50;;;2.30;;
20609;SDS011;10463;52.378;9.688;2023-08-20T16:42:29;2.70;;;2.50;;